sensor_id;sensor_type;location;lat;lon;timestamp;temperature;humidity
78708;SHT31;68037;51.978;5.650;2023-09-18T00:00:57;22.6;73.0
78708;SHT31;68037;51.978;5.650;2023-09-18T00:03:26;22.7;72.8
78708;SHT31;68037;51.978;5.650;2023-09-18T00:05:56;22.8;72.3
78708;SHT31;68037;51.978;5.650;2023-09-18T00:08:26;22.8;71.7
78708;SHT31;68037;51.978;5.650;2023-09-18T00:10:56;22.8;71.5
78708;SHT31;68037;51.978;5.650;2023-09-18T00:13:27;22.8;71.5
78708;SHT31;68037;51.978;5.650;2023-09-18T00:15:57;22.8;71.6
78708;SHT31;68037;51.978;5.650;2023-09-18T00:18:27;22.7;71.9
78708;SHT31;68037;51.978;5.650;2023-09-18T00:21:05;22.7;72.2
78708;SHT31;68037;51.978;5.650;2023-09-18T00:23:38;22.8;72.2
78708;SHT31;68037;51.978;5.650;2023-09-18T00:26:09;22.8;71.9
78708;SHT31;68037;51.978;5.650;2023-09-18T00:28:39;22.9;71.7
78708;SHT31;68037;51.978;5.650;2023-09-18T00:31:09;23.0;71.2
78708;SHT31;68037;51.978;5.650;2023-09-18T00:33:39;23.0;70.9
78708;SHT31;68037;51.978;5.650;2023-09-18T00:36:08;22.9;71.0
78708;SHT31;68037;51.978;5.650;2023-09-18T00:38:41;22.9;71.1
78708;SHT31;68037;51.978;5.650;2023-09-18T00:41:11;22.8;71.3
78708;SHT31;68037;51.978;5.650;2023-09-18T00:43:40;22.8;71.4
78708;SHT31;68037;51.978;5.650;2023-09-18T00:46:11;22.8;71.6
78708;SHT31;68037;51.978;5.650;2023-09-18T00:48:42;22.7;71.6
78708;SHT31;68037;51.978;5.650;2023-09-18T00:51:13;22.7;71.8
78708;SHT31;68037;51.978;5.650;2023-09-18T00:53:45;22.6;72.1
78708;SHT31;68037;51.978;5.650;2023-09-18T00:56:17;22.6;72.4
78708;SHT31;68037;51.978;5.650;2023-09-18T00:58:47;22.6;72.4
78708;SHT31;68037;51.978;5.650;2023-09-18T01:01:19;22.5;72.5
78708;SHT31;68037;51.978;5.650;2023-09-18T01:03:51;22.5;72.7
78708;SHT31;68037;51.978;5.650;2023-09-18T01:06:24;22.5;72.9
78708;SHT31;68037;51.978;5.650;2023-09-18T01:08:57;22.4;73.0
78708;SHT31;68037;51.978;5.650;2023-09-18T01:11:33;22.4;73.2
78708;SHT31;68037;51.978;5.650;2023-09-18T01:14:17;22.4;73.2
78708;SHT31;68037;51.978;5.650;2023-09-18T01:16:53;22.3;73.5
78708;SHT31;68037;51.978;5.650;2023-09-18T01:19:46;22.3;73.8
78708;SHT31;68037;51.978;5.650;2023-09-18T01:22:18;22.3;73.7
78708;SHT31;68037;51.978;5.650;2023-09-18T01:24:49;22.3;73.8
78708;SHT31;68037;51.978;5.650;2023-09-18T01:27:19;22.3;73.8
78708;SHT31;68037;51.978;5.650;2023-09-18T01:29:48;22.2;73.9
78708;SHT31;68037;51.978;5.650;2023-09-18T01:32:21;22.2;73.9
78708;SHT31;68037;51.978;5.650;2023-09-18T01:34:57;22.2;74.0
78708;SHT31;68037;51.978;5.650;2023-09-18T01:37:29;22.2;74.1
78708;SHT31;68037;51.978;5.650;2023-09-18T01:40:04;22.2;74.2
78708;SHT31;68037;51.978;5.650;2023-09-18T01:42:35;22.2;74.3
78708;SHT31;68037;51.978;5.650;2023-09-18T01:45:05;22.1;74.4
78708;SHT31;68037;51.978;5.650;2023-09-18T01:47:36;22.1;74.4
78708;SHT31;68037;51.978;5.650;2023-09-18T01:50:07;22.1;74.5
78708;SHT31;68037;51.978;5.650;2023-09-18T01:52:38;22.1;74.5
78708;SHT31;68037;51.978;5.650;2023-09-18T01:55:09;22.1;74.6
78708;SHT31;68037;51.978;5.650;2023-09-18T01:57:38;22.1;74.6
78708;SHT31;68037;51.978;5.650;2023-09-18T02:00:10;22.1;74.7
78708;SHT31;68037;51.978;5.650;2023-09-18T02:02:41;22.1;74.7
78708;SHT31;68037;51.978;5.650;2023-09-18T02:05:10;22.1;74.6
78708;SHT31;68037;51.978;5.650;2023-09-18T02:07:40;22.1;74.6
78708;SHT31;68037;51.978;5.650;2023-09-18T02:10:10;22.1;74.9
78708;SHT31;68037;51.978;5.650;2023-09-18T02:12:41;22.1;74.6
78708;SHT31;68037;51.978;5.650;2023-09-18T02:15:11;22.1;74.7
78708;SHT31;68037;51.978;5.650;2023-09-18T02:17:40;22.1;74.6
78708;SHT31;68037;51.978;5.650;2023-09-18T02:20:11;22.1;74.6
78708;SHT31;68037;51.978;5.650;2023-09-18T02:22:42;22.1;74.4
78708;SHT31;68037;51.978;5.650;2023-09-18T02:25:14;22.1;74.5
78708;SHT31;68037;51.978;5.650;2023-09-18T02:27:45;22.1;74.6
78708;SHT31;68037;51.978;5.650;2023-09-18T02:30:29;22.1;74.5
78708;SHT31;68037;51.978;5.650;2023-09-18T02:32:58;22.1;74.4
78708;SHT31;68037;51.978;5.650;2023-09-18T02:35:33;22.1;74.5
78708;SHT31;68037;51.978;5.650;2023-09-18T02:38:09;22.2;74.4
78708;SHT31;68037;51.978;5.650;2023-09-18T02:40:38;22.3;74.0
78708;SHT31;68037;51.978;5.650;2023-09-18T02:43:07;22.5;73.5
78708;SHT31;68037;51.978;5.650;2023-09-18T02:45:37;22.6;72.9
78708;SHT31;68037;51.978;5.650;2023-09-18T02:48:06;22.7;72.4
78708;SHT31;68037;51.978;5.650;2023-09-18T02:50:36;22.7;71.9
78708;SHT31;68037;51.978;5.650;2023-09-18T02:53:06;22.7;71.8
78708;SHT31;68037;51.978;5.650;2023-09-18T02:55:38;22.7;71.7
78708;SHT31;68037;51.978;5.650;2023-09-18T02:58:08;22.7;71.8
78708;SHT31;68037;51.978;5.650;2023-09-18T03:00:42;22.6;71.9
78708;SHT31;68037;51.978;5.650;2023-09-18T03:03:13;22.6;72.0
78708;SHT31;68037;51.978;5.650;2023-09-18T03:05:47;22.6;72.2
78708;SHT31;68037;51.978;5.650;2023-09-18T03:08:17;22.6;72.2
78708;SHT31;68037;51.978;5.650;2023-09-18T03:10:47;22.6;72.2
78708;SHT31;68037;51.978;5.650;2023-09-18T03:13:18;22.5;72.3
78708;SHT31;68037;51.978;5.650;2023-09-18T03:15:48;22.6;72.2
78708;SHT31;68037;51.978;5.650;2023-09-18T03:18:17;22.5;72.2
78708;SHT31;68037;51.978;5.650;2023-09-18T03:20:47;22.5;72.1
78708;SHT31;68037;51.978;5.650;2023-09-18T03:23:17;22.5;72.1
78708;SHT31;68037;51.978;5.650;2023-09-18T03:25:46;22.5;72.1
78708;SHT31;68037;51.978;5.650;2023-09-18T03:28:16;22.5;72.2
78708;SHT31;68037;51.978;5.650;2023-09-18T03:30:47;22.5;72.2
78708;SHT31;68037;51.978;5.650;2023-09-18T03:33:16;22.4;72.4
78708;SHT31;68037;51.978;5.650;2023-09-18T03:35:47;22.4;72.6
78708;SHT31;68037;51.978;5.650;2023-09-18T03:38:17;22.4;72.7
78708;SHT31;68037;51.978;5.650;2023-09-18T03:40:48;22.4;72.8
78708;SHT31;68037;51.978;5.650;2023-09-18T03:43:18;22.4;73.0
78708;SHT31;68037;51.978;5.650;2023-09-18T03:45:48;22.4;73.1
78708;SHT31;68037;51.978;5.650;2023-09-18T03:48:17;22.4;72.9
78708;SHT31;68037;51.978;5.650;2023-09-18T03:50:49;22.3;73.1
78708;SHT31;68037;51.978;5.650;2023-09-18T03:53:18;22.3;72.9
78708;SHT31;68037;51.978;5.650;2023-09-18T03:55:50;22.3;72.8
78708;SHT31;68037;51.978;5.650;2023-09-18T03:58:19;22.3;73.0
78708;SHT31;68037;51.978;5.650;2023-09-18T04:00:49;22.3;73.1
78708;SHT31;68037;51.978;5.650;2023-09-18T04:03:18;22.3;73.1
78708;SHT31;68037;51.978;5.650;2023-09-18T04:05:48;22.2;73.2
78708;SHT31;68037;51.978;5.650;2023-09-18T04:08:17;22.2;73.7
78708;SHT31;68037;51.978;5.650;2023-09-18T04:10:47;22.2;73.7
78708;SHT31;68037;51.978;5.650;2023-09-18T04:13:17;22.2;73.7
78708;SHT31;68037;51.978;5.650;2023-09-18T04:15:46;22.2;73.7
78708;SHT31;68037;51.978;5.650;2023-09-18T04:18:16;22.2;73.9
78708;SHT31;68037;51.978;5.650;2023-09-18T04:20:45;22.2;74.0
78708;SHT31;68037;51.978;5.650;2023-09-18T04:23:19;22.2;73.9
78708;SHT31;68037;51.978;5.650;2023-09-18T04:25:50;22.2;73.7
78708;SHT31;68037;51.978;5.650;2023-09-18T04:28:21;22.2;73.8
78708;SHT31;68037;51.978;5.650;2023-09-18T04:30:53;22.2;74.0
78708;SHT31;68037;51.978;5.650;2023-09-18T04:33:23;22.2;73.7
78708;SHT31;68037;51.978;5.650;2023-09-18T04:35:54;22.2;73.8
78708;SHT31;68037;51.978;5.650;2023-09-18T04:38:24;22.2;73.8
78708;SHT31;68037;51.978;5.650;2023-09-18T04:40:59;22.2;73.9
78708;SHT31;68037;51.978;5.650;2023-09-18T04:43:29;22.1;74.1
78708;SHT31;68037;51.978;5.650;2023-09-18T04:46:00;22.1;74.2
78708;SHT31;68037;51.978;5.650;2023-09-18T04:48:32;22.1;74.0
78708;SHT31;68037;51.978;5.650;2023-09-18T04:51:02;22.1;74.1
78708;SHT31;68037;51.978;5.650;2023-09-18T04:53:32;22.1;74.2
78708;SHT31;68037;51.978;5.650;2023-09-18T04:56:02;22.2;74.3
78708;SHT31;68037;51.978;5.650;2023-09-18T04:58:32;22.2;74.4
78708;SHT31;68037;51.978;5.650;2023-09-18T05:01:05;22.2;75.6
78708;SHT31;68037;51.978;5.650;2023-09-18T05:03:35;22.2;76.5
78708;SHT31;68037;51.978;5.650;2023-09-18T05:06:05;22.1;77.0
78708;SHT31;68037;51.978;5.650;2023-09-18T05:08:35;21.9;77.8
78708;SHT31;68037;51.978;5.650;2023-09-18T05:11:04;21.8;78.7
78708;SHT31;68037;51.978;5.650;2023-09-18T05:13:34;21.6;79.6
78708;SHT31;68037;51.978;5.650;2023-09-18T05:16:04;21.5;80.4
78708;SHT31;68037;51.978;5.650;2023-09-18T05:18:34;21.4;81.1
78708;SHT31;68037;51.978;5.650;2023-09-18T05:21:03;21.3;81.4
78708;SHT31;68037;51.978;5.650;2023-09-18T05:23:33;21.2;81.8
78708;SHT31;68037;51.978;5.650;2023-09-18T05:26:02;21.1;82.0
78708;SHT31;68037;51.978;5.650;2023-09-18T05:28:32;21.1;82.2
78708;SHT31;68037;51.978;5.650;2023-09-18T05:31:02;21.1;82.8
78708;SHT31;68037;51.978;5.650;2023-09-18T05:33:34;21.2;82.8
78708;SHT31;68037;51.978;5.650;2023-09-18T05:36:08;21.3;82.0
78708;SHT31;68037;51.978;5.650;2023-09-18T05:38:38;21.3;81.8
78708;SHT31;68037;51.978;5.650;2023-09-18T05:41:07;21.3;81.6
78708;SHT31;68037;51.978;5.650;2023-09-18T05:43:38;21.3;81.7
78708;SHT31;68037;51.978;5.650;2023-09-18T05:46:07;21.3;81.3
78708;SHT31;68037;51.978;5.650;2023-09-18T05:48:37;21.3;81.5
78708;SHT31;68037;51.978;5.650;2023-09-18T05:51:06;21.3;81.6
78708;SHT31;68037;51.978;5.650;2023-09-18T05:53:36;21.3;81.8
78708;SHT31;68037;51.978;5.650;2023-09-18T05:56:05;21.3;81.8
78708;SHT31;68037;51.978;5.650;2023-09-18T05:58:37;21.3;81.8
78708;SHT31;68037;51.978;5.650;2023-09-18T06:01:07;21.3;81.9
78708;SHT31;68037;51.978;5.650;2023-09-18T06:03:36;21.3;81.9
78708;SHT31;68037;51.978;5.650;2023-09-18T06:06:07;21.3;81.9
78708;SHT31;68037;51.978;5.650;2023-09-18T06:08:37;21.2;82.0
78708;SHT31;68037;51.978;5.650;2023-09-18T06:11:06;21.2;82.2
78708;SHT31;68037;51.978;5.650;2023-09-18T06:13:37;21.2;82.1
78708;SHT31;68037;51.978;5.650;2023-09-18T06:16:07;21.2;82.1
78708;SHT31;68037;51.978;5.650;2023-09-18T06:18:37;21.2;82.1
78708;SHT31;68037;51.978;5.650;2023-09-18T06:21:07;21.2;82.1
78708;SHT31;68037;51.978;5.650;2023-09-18T06:23:36;21.2;82.3
78708;SHT31;68037;51.978;5.650;2023-09-18T06:26:08;21.2;82.3
78708;SHT31;68037;51.978;5.650;2023-09-18T06:28:37;21.3;82.4
78708;SHT31;68037;51.978;5.650;2023-09-18T06:31:07;21.3;82.3
78708;SHT31;68037;51.978;5.650;2023-09-18T06:33:38;21.3;82.0
78708;SHT31;68037;51.978;5.650;2023-09-18T06:36:10;21.3;82.0
78708;SHT31;68037;51.978;5.650;2023-09-18T06:38:42;21.3;81.8
78708;SHT31;68037;51.978;5.650;2023-09-18T06:41:11;21.3;81.7
78708;SHT31;68037;51.978;5.650;2023-09-18T06:43:41;21.3;81.9
78708;SHT31;68037;51.978;5.650;2023-09-18T06:46:11;21.3;81.8
78708;SHT31;68037;51.978;5.650;2023-09-18T06:48:41;21.3;81.8
78708;SHT31;68037;51.978;5.650;2023-09-18T06:51:13;21.3;81.7
78708;SHT31;68037;51.978;5.650;2023-09-18T06:53:44;21.4;81.3
78708;SHT31;68037;51.978;5.650;2023-09-18T06:56:14;21.4;81.2
78708;SHT31;68037;51.978;5.650;2023-09-18T06:58:44;21.4;81.1
78708;SHT31;68037;51.978;5.650;2023-09-18T07:01:15;21.4;81.0
78708;SHT31;68037;51.978;5.650;2023-09-18T07:03:47;21.4;80.9
78708;SHT31;68037;51.978;5.650;2023-09-18T07:06:17;21.4;81.0
78708;SHT31;68037;51.978;5.650;2023-09-18T07:08:48;21.4;81.2
78708;SHT31;68037;51.978;5.650;2023-09-18T07:11:18;21.5;80.8
78708;SHT31;68037;51.978;5.650;2023-09-18T07:13:50;21.6;80.3
78708;SHT31;68037;51.978;5.650;2023-09-18T07:16:19;21.6;79.9
78708;SHT31;68037;51.978;5.650;2023-09-18T07:18:50;21.7;79.4
78708;SHT31;68037;51.978;5.650;2023-09-18T07:21:20;21.7;79.2
78708;SHT31;68037;51.978;5.650;2023-09-18T07:23:51;21.7;79.0
78708;SHT31;68037;51.978;5.650;2023-09-18T07:26:21;21.8;79.0
78708;SHT31;68037;51.978;5.650;2023-09-18T07:28:50;21.8;78.4
78708;SHT31;68037;51.978;5.650;2023-09-18T07:31:20;21.8;78.5
78708;SHT31;68037;51.978;5.650;2023-09-18T07:33:51;21.8;78.2
78708;SHT31;68037;51.978;5.650;2023-09-18T07:36:21;21.7;78.3
78708;SHT31;68037;51.978;5.650;2023-09-18T07:38:51;21.7;78.4
78708;SHT31;68037;51.978;5.650;2023-09-18T07:41:21;21.7;78.7
78708;SHT31;68037;51.978;5.650;2023-09-18T07:43:51;21.7;78.4
78708;SHT31;68037;51.978;5.650;2023-09-18T07:46:23;21.7;78.8
78708;SHT31;68037;51.978;5.650;2023-09-18T07:48:53;21.7;78.9
78708;SHT31;68037;51.978;5.650;2023-09-18T07:51:24;21.8;78.5
78708;SHT31;68037;51.978;5.650;2023-09-18T07:53:54;21.8;78.1
78708;SHT31;68037;51.978;5.650;2023-09-18T07:56:23;21.9;78.0
78708;SHT31;68037;51.978;5.650;2023-09-18T07:58:53;21.9;77.4
78708;SHT31;68037;51.978;5.650;2023-09-18T08:01:22;21.9;77.4
78708;SHT31;68037;51.978;5.650;2023-09-18T08:03:52;21.9;76.8
78708;SHT31;68037;51.978;5.650;2023-09-18T08:06:22;21.9;77.1
78708;SHT31;68037;51.978;5.650;2023-09-18T08:08:52;21.9;76.9
78708;SHT31;68037;51.978;5.650;2023-09-18T08:11:22;21.9;76.7
78708;SHT31;68037;51.978;5.650;2023-09-18T08:13:51;21.9;76.5
78708;SHT31;68037;51.978;5.650;2023-09-18T08:16:21;21.9;76.6
78708;SHT31;68037;51.978;5.650;2023-09-18T08:18:50;21.8;76.4
78708;SHT31;68037;51.978;5.650;2023-09-18T08:21:20;21.8;76.5
78708;SHT31;68037;51.978;5.650;2023-09-18T08:23:51;21.8;76.9
78708;SHT31;68037;51.978;5.650;2023-09-18T08:26:20;21.8;76.8
78708;SHT31;68037;51.978;5.650;2023-09-18T08:28:49;21.8;76.7
78708;SHT31;68037;51.978;5.650;2023-09-18T08:31:20;21.8;76.8
78708;SHT31;68037;51.978;5.650;2023-09-18T08:33:53;21.7;76.3
78708;SHT31;68037;51.978;5.650;2023-09-18T08:36:23;21.7;76.2
78708;SHT31;68037;51.978;5.650;2023-09-18T08:38:54;21.7;76.2
78708;SHT31;68037;51.978;5.650;2023-09-18T08:41:30;21.7;75.6
78708;SHT31;68037;51.978;5.650;2023-09-18T08:44:02;21.7;76.0
78708;SHT31;68037;51.978;5.650;2023-09-18T08:46:35;21.6;76.2
78708;SHT31;68037;51.978;5.650;2023-09-18T08:49:07;21.6;77.0
78708;SHT31;68037;51.978;5.650;2023-09-18T08:51:40;21.7;76.6
78708;SHT31;68037;51.978;5.650;2023-09-18T08:54:14;21.7;76.2
78708;SHT31;68037;51.978;5.650;2023-09-18T08:56:44;21.7;76.3
78708;SHT31;68037;51.978;5.650;2023-09-18T08:59:14;21.7;76.3
78708;SHT31;68037;51.978;5.650;2023-09-18T09:01:44;21.7;75.6
78708;SHT31;68037;51.978;5.650;2023-09-18T09:04:14;21.8;75.4
78708;SHT31;68037;51.978;5.650;2023-09-18T09:06:46;21.8;75.6
78708;SHT31;68037;51.978;5.650;2023-09-18T09:09:18;21.8;75.3
78708;SHT31;68037;51.978;5.650;2023-09-18T09:11:58;22.0;74.5
78708;SHT31;68037;51.978;5.650;2023-09-18T09:14:36;22.1;74.0
78708;SHT31;68037;51.978;5.650;2023-09-18T09:17:07;22.2;74.0
78708;SHT31;68037;51.978;5.650;2023-09-18T09:19:38;22.3;74.0
78708;SHT31;68037;51.978;5.650;2023-09-18T09:22:26;22.4;72.9
78708;SHT31;68037;51.978;5.650;2023-09-18T09:24:55;22.5;72.1
78708;SHT31;68037;51.978;5.650;2023-09-18T09:27:25;22.6;71.5
78708;SHT31;68037;51.978;5.650;2023-09-18T09:30:10;22.6;71.6
78708;SHT31;68037;51.978;5.650;2023-09-18T09:32:40;22.8;70.4
78708;SHT31;68037;51.978;5.650;2023-09-18T09:35:26;22.9;70.4
78708;SHT31;68037;51.978;5.650;2023-09-18T09:38:09;22.9;70.1
78708;SHT31;68037;51.978;5.650;2023-09-18T09:40:45;23.0;69.9
78708;SHT31;68037;51.978;5.650;2023-09-18T09:43:16;23.1;70.6
78708;SHT31;68037;51.978;5.650;2023-09-18T09:45:47;23.1;69.1
78708;SHT31;68037;51.978;5.650;2023-09-18T09:48:17;23.1;69.2
78708;SHT31;68037;51.978;5.650;2023-09-18T09:50:48;23.1;70.0
78708;SHT31;68037;51.978;5.650;2023-09-18T09:53:19;23.1;69.2
78708;SHT31;68037;51.978;5.650;2023-09-18T09:55:55;23.1;70.0
78708;SHT31;68037;51.978;5.650;2023-09-18T09:58:28;23.1;69.9
78708;SHT31;68037;51.978;5.650;2023-09-18T10:01:03;23.1;69.8
78708;SHT31;68037;51.978;5.650;2023-09-18T10:03:40;23.2;68.4
78708;SHT31;68037;51.978;5.650;2023-09-18T10:06:11;23.3;68.6
78708;SHT31;68037;51.978;5.650;2023-09-18T10:08:42;23.3;67.3
78708;SHT31;68037;51.978;5.650;2023-09-18T10:11:13;23.4;66.1
78708;SHT31;68037;51.978;5.650;2023-09-18T10:13:47;23.4;66.6
78708;SHT31;68037;51.978;5.650;2023-09-18T10:16:23;23.4;66.1
78708;SHT31;68037;51.978;5.650;2023-09-18T10:19:06;23.4;66.2
78708;SHT31;68037;51.978;5.650;2023-09-18T10:21:41;23.3;65.4
78708;SHT31;68037;51.978;5.650;2023-09-18T10:24:20;23.3;66.5
78708;SHT31;68037;51.978;5.650;2023-09-18T10:26:59;23.2;66.6
78708;SHT31;68037;51.978;5.650;2023-09-18T10:29:33;23.2;66.8
78708;SHT31;68037;51.978;5.650;2023-09-18T10:32:05;23.1;67.1
78708;SHT31;68037;51.978;5.650;2023-09-18T10:34:36;23.1;67.5
78708;SHT31;68037;51.978;5.650;2023-09-18T10:37:10;23.1;67.9
78708;SHT31;68037;51.978;5.650;2023-09-18T10:39:42;23.0;67.1
78708;SHT31;68037;51.978;5.650;2023-09-18T10:42:14;23.0;66.9
78708;SHT31;68037;51.978;5.650;2023-09-18T10:44:46;22.9;66.1
78708;SHT31;68037;51.978;5.650;2023-09-18T10:47:17;22.9;66.5
78708;SHT31;68037;51.978;5.650;2023-09-18T10:49:48;22.8;67.3
78708;SHT31;68037;51.978;5.650;2023-09-18T10:52:18;22.8;67.6
78708;SHT31;68037;51.978;5.650;2023-09-18T10:54:50;22.8;67.4
78708;SHT31;68037;51.978;5.650;2023-09-18T10:57:20;22.7;68.7
78708;SHT31;68037;51.978;5.650;2023-09-18T10:59:50;22.7;67.9
78708;SHT31;68037;51.978;5.650;2023-09-18T11:02:27;22.7;68.5
78708;SHT31;68037;51.978;5.650;2023-09-18T11:04:57;22.8;68.0
78708;SHT31;68037;51.978;5.650;2023-09-18T11:07:29;22.8;68.8
78708;SHT31;68037;51.978;5.650;2023-09-18T11:09:58;22.8;69.9
78708;SHT31;68037;51.978;5.650;2023-09-18T11:12:44;22.9;68.3
78708;SHT31;68037;51.978;5.650;2023-09-18T11:15:31;22.9;68.9
78708;SHT31;68037;51.978;5.650;2023-09-18T11:18:02;23.0;68.1
78708;SHT31;68037;51.978;5.650;2023-09-18T11:20:32;23.0;67.3
78708;SHT31;68037;51.978;5.650;2023-09-18T11:23:18;23.1;66.2
78708;SHT31;68037;51.978;5.650;2023-09-18T11:25:47;23.1;65.4
78708;SHT31;68037;51.978;5.650;2023-09-18T11:28:23;23.1;64.7
78708;SHT31;68037;51.978;5.650;2023-09-18T11:30:55;23.1;65.1
78708;SHT31;68037;51.978;5.650;2023-09-18T11:33:38;23.1;66.0
78708;SHT31;68037;51.978;5.650;2023-09-18T11:36:12;23.1;67.0
78708;SHT31;68037;51.978;5.650;2023-09-18T11:38:53;23.1;65.6
78708;SHT31;68037;51.978;5.650;2023-09-18T11:41:25;23.1;67.8
78708;SHT31;68037;51.978;5.650;2023-09-18T11:44:33;23.1;66.2
78708;SHT31;68037;51.978;5.650;2023-09-18T11:47:10;23.2;66.7
78708;SHT31;68037;51.978;5.650;2023-09-18T11:49:50;23.3;66.1
78708;SHT31;68037;51.978;5.650;2023-09-18T11:52:25;23.3;66.6
78708;SHT31;68037;51.978;5.650;2023-09-18T11:54:56;23.4;65.0
78708;SHT31;68037;51.978;5.650;2023-09-18T11:57:26;23.5;65.6
78708;SHT31;68037;51.978;5.650;2023-09-18T11:59:56;23.5;64.6
78708;SHT31;68037;51.978;5.650;2023-09-18T12:02:31;23.6;63.7
78708;SHT31;68037;51.978;5.650;2023-09-18T12:05:10;23.7;62.3
78708;SHT31;68037;51.978;5.650;2023-09-18T12:07:43;23.7;61.4
78708;SHT31;68037;51.978;5.650;2023-09-18T12:10:15;23.7;61.3
78708;SHT31;68037;51.978;5.650;2023-09-18T12:12:47;23.7;61.8
78708;SHT31;68037;51.978;5.650;2023-09-18T12:15:18;23.7;61.4
78708;SHT31;68037;51.978;5.650;2023-09-18T12:17:48;23.7;61.5
78708;SHT31;68037;51.978;5.650;2023-09-18T12:20:20;23.8;61.8
78708;SHT31;68037;51.978;5.650;2023-09-18T12:22:57;23.9;61.8
78708;SHT31;68037;51.978;5.650;2023-09-18T12:25:27;24.0;61.1
78708;SHT31;68037;51.978;5.650;2023-09-18T12:28:01;24.2;61.2
78708;SHT31;68037;51.978;5.650;2023-09-18T12:30:33;24.3;60.4
78708;SHT31;68037;51.978;5.650;2023-09-18T12:33:03;24.3;59.7
78708;SHT31;68037;51.978;5.650;2023-09-18T12:35:35;24.4;60.0
78708;SHT31;68037;51.978;5.650;2023-09-18T12:38:15;24.4;59.7
78708;SHT31;68037;51.978;5.650;2023-09-18T12:40:49;24.5;59.7
78708;SHT31;68037;51.978;5.650;2023-09-18T12:43:22;24.5;59.5
78708;SHT31;68037;51.978;5.650;2023-09-18T12:45:57;24.6;59.2
78708;SHT31;68037;51.978;5.650;2023-09-18T12:48:26;24.6;58.7
78708;SHT31;68037;51.978;5.650;2023-09-18T12:51:04;24.7;57.8
78708;SHT31;68037;51.978;5.650;2023-09-18T12:53:34;24.7;59.0
78708;SHT31;68037;51.978;5.650;2023-09-18T12:56:10;24.7;58.3
78708;SHT31;68037;51.978;5.650;2023-09-18T12:58:41;24.7;57.9
78708;SHT31;68037;51.978;5.650;2023-09-18T13:01:11;24.7;58.1
78708;SHT31;68037;51.978;5.650;2023-09-18T13:03:44;24.7;58.7
78708;SHT31;68037;51.978;5.650;2023-09-18T13:06:16;24.7;58.9
78708;SHT31;68037;51.978;5.650;2023-09-18T13:08:47;24.8;58.4
78708;SHT31;68037;51.978;5.650;2023-09-18T13:11:18;24.9;58.8
78708;SHT31;68037;51.978;5.650;2023-09-18T13:13:58;24.9;57.6
78708;SHT31;68037;51.978;5.650;2023-09-18T13:16:28;24.9;56.5
78708;SHT31;68037;51.978;5.650;2023-09-18T13:19:05;24.9;56.7
78708;SHT31;68037;51.978;5.650;2023-09-18T13:21:36;24.9;55.6
78708;SHT31;68037;51.978;5.650;2023-09-18T13:24:06;24.9;56.4
78708;SHT31;68037;51.978;5.650;2023-09-18T13:26:36;25.0;56.4
78708;SHT31;68037;51.978;5.650;2023-09-18T13:29:06;25.0;56.1
78708;SHT31;68037;51.978;5.650;2023-09-18T13:31:35;25.0;56.7
78708;SHT31;68037;51.978;5.650;2023-09-18T13:34:05;25.0;56.1
78708;SHT31;68037;51.978;5.650;2023-09-18T13:36:35;25.0;56.6
78708;SHT31;68037;51.978;5.650;2023-09-18T13:39:05;25.0;56.5
78708;SHT31;68037;51.978;5.650;2023-09-18T13:41:34;25.0;56.7
78708;SHT31;68037;51.978;5.650;2023-09-18T13:44:04;25.0;56.1
78708;SHT31;68037;51.978;5.650;2023-09-18T13:46:34;25.0;56.0
78708;SHT31;68037;51.978;5.650;2023-09-18T13:49:04;25.0;56.4
78708;SHT31;68037;51.978;5.650;2023-09-18T13:51:34;25.1;56.3
78708;SHT31;68037;51.978;5.650;2023-09-18T13:54:04;25.1;56.5
78708;SHT31;68037;51.978;5.650;2023-09-18T13:56:34;25.1;56.2
78708;SHT31;68037;51.978;5.650;2023-09-18T13:59:06;25.1;55.9
78708;SHT31;68037;51.978;5.650;2023-09-18T14:01:37;25.1;55.6
78708;SHT31;68037;51.978;5.650;2023-09-18T14:04:08;25.2;56.0
78708;SHT31;68037;51.978;5.650;2023-09-18T14:06:38;25.2;56.2
78708;SHT31;68037;51.978;5.650;2023-09-18T14:09:08;25.2;55.8
78708;SHT31;68037;51.978;5.650;2023-09-18T14:11:37;25.2;56.6
78708;SHT31;68037;51.978;5.650;2023-09-18T14:14:07;25.3;55.8
78708;SHT31;68037;51.978;5.650;2023-09-18T14:16:37;25.3;55.2
78708;SHT31;68037;51.978;5.650;2023-09-18T14:19:06;25.4;55.3
78708;SHT31;68037;51.978;5.650;2023-09-18T14:21:38;25.4;54.3
78708;SHT31;68037;51.978;5.650;2023-09-18T14:24:09;25.4;53.6
78708;SHT31;68037;51.978;5.650;2023-09-18T14:26:38;25.4;53.9
78708;SHT31;68037;51.978;5.650;2023-09-18T14:29:10;25.5;53.8
78708;SHT31;68037;51.978;5.650;2023-09-18T14:31:43;25.5;53.6
78708;SHT31;68037;51.978;5.650;2023-09-18T14:34:13;25.5;53.5
78708;SHT31;68037;51.978;5.650;2023-09-18T14:36:43;25.6;51.8
78708;SHT31;68037;51.978;5.650;2023-09-18T14:39:12;25.7;51.3
78708;SHT31;68037;51.978;5.650;2023-09-18T14:41:42;25.8;51.1
78708;SHT31;68037;51.978;5.650;2023-09-18T14:44:11;25.8;50.5
78708;SHT31;68037;51.978;5.650;2023-09-18T14:46:41;25.9;49.7
78708;SHT31;68037;51.978;5.650;2023-09-18T14:49:11;25.9;50.2
78708;SHT31;68037;51.978;5.650;2023-09-18T14:51:41;25.9;50.5
78708;SHT31;68037;51.978;5.650;2023-09-18T14:54:11;25.9;50.8
78708;SHT31;68037;51.978;5.650;2023-09-18T14:56:42;25.9;50.6
78708;SHT31;68037;51.978;5.650;2023-09-18T14:59:13;25.9;50.7
78708;SHT31;68037;51.978;5.650;2023-09-18T15:01:44;25.9;50.7
78708;SHT31;68037;51.978;5.650;2023-09-18T15:04:15;25.9;51.6
78708;SHT31;68037;51.978;5.650;2023-09-18T15:06:51;25.8;51.8
78708;SHT31;68037;51.978;5.650;2023-09-18T15:09:21;25.8;51.7
78708;SHT31;68037;51.978;5.650;2023-09-18T15:11:50;25.8;52.0
78708;SHT31;68037;51.978;5.650;2023-09-18T15:14:20;25.8;51.1
78708;SHT31;68037;51.978;5.650;2023-09-18T15:16:49;25.7;51.6
78708;SHT31;68037;51.978;5.650;2023-09-18T15:19:19;25.7;52.1
78708;SHT31;68037;51.978;5.650;2023-09-18T15:21:49;25.6;52.4
78708;SHT31;68037;51.978;5.650;2023-09-18T15:24:20;25.1;56.0
78708;SHT31;68037;51.978;5.650;2023-09-18T15:26:51;23.2;60.7
78708;SHT31;68037;51.978;5.650;2023-09-18T15:29:22;21.8;67.8
78708;SHT31;68037;51.978;5.650;2023-09-18T15:31:51;21.0;72.7
78708;SHT31;68037;51.978;5.650;2023-09-18T15:34:22;20.7;70.6
78708;SHT31;68037;51.978;5.650;2023-09-18T15:36:51;20.5;73.2
78708;SHT31;68037;51.978;5.650;2023-09-18T15:39:23;20.2;73.5
78708;SHT31;68037;51.978;5.650;2023-09-18T15:41:54;20.0;73.7
78708;SHT31;68037;51.978;5.650;2023-09-18T15:44:24;19.9;75.2
78708;SHT31;68037;51.978;5.650;2023-09-18T15:46:53;19.7;76.2
78708;SHT31;68037;51.978;5.650;2023-09-18T15:49:23;19.6;77.3
78708;SHT31;68037;51.978;5.650;2023-09-18T15:51:53;19.4;76.4
78708;SHT31;68037;51.978;5.650;2023-09-18T15:54:22;19.3;79.0
78708;SHT31;68037;51.978;5.650;2023-09-18T15:56:52;19.3;79.7
78708;SHT31;68037;51.978;5.650;2023-09-18T15:59:22;19.2;80.4
78708;SHT31;68037;51.978;5.650;2023-09-18T16:01:52;19.2;80.5
78708;SHT31;68037;51.978;5.650;2023-09-18T16:04:22;19.2;79.8
78708;SHT31;68037;51.978;5.650;2023-09-18T16:06:52;19.2;79.4
78708;SHT31;68037;51.978;5.650;2023-09-18T16:09:23;19.1;79.6
78708;SHT31;68037;51.978;5.650;2023-09-18T16:11:53;19.1;81.4
78708;SHT31;68037;51.978;5.650;2023-09-18T16:14:22;19.1;82.3
78708;SHT31;68037;51.978;5.650;2023-09-18T16:16:52;19.2;82.9
78708;SHT31;68037;51.978;5.650;2023-09-18T16:19:25;19.3;81.4
78708;SHT31;68037;51.978;5.650;2023-09-18T16:21:54;19.3;80.7
78708;SHT31;68037;51.978;5.650;2023-09-18T16:24:24;19.4;80.7
78708;SHT31;68037;51.978;5.650;2023-09-18T16:26:54;19.5;79.7
78708;SHT31;68037;51.978;5.650;2023-09-18T16:29:28;19.6;78.8